Time;durP1;ratioP1;P1;durP2;ratioP2;P2;SDS_P1;SDS_P2;PMS_P1;PMS_P2;Temp;Humidity;BMP_temperature;BMP_pressure;BME280_temperature;BME280_humidity;BME280_pressure;Samples;Min_cycle;Max_cycle;Signal;HPM_P1;HPM_P2
2023/09/23 00:01:04;;;;;;;1.60;0.60;;;11.80;99.90;;;;;;5035914;28;20178;-61
2023/09/23 00:03:31;;;;;;;1.30;0.60;;;11.90;99.90;;;;;;5028331;28;20178;-61
2023/09/23 00:05:56;;;;;;;1.40;0.70;;;11.80;99.90;;;;;;5027492;28;20446;-61
2023/09/23 00:08:22;;;;;;;1.10;0.40;;;11.80;99.90;;;;;;5027079;28;20834;-61
2023/09/23 00:10:50;;;;;;;1.40;0.60;;;11.80;99.90;;;;;;5029006;28;20191;-61
2023/09/23 00:13:17;;;;;;;1.73;0.77;;;11.80;99.90;;;;;;5027400;28;20224;-61
2023/09/23 00:15:43;;;;;;;1.37;0.70;;;11.80;99.90;;;;;;5027649;28;20421;-61
2023/09/23 00:18:09;;;;;;;1.30;0.60;;;11.80;99.90;;;;;;5031914;28;20507;-61
2023/09/23 00:20:38;;;;;;;1.37;0.67;;;11.90;99.90;;;;;;5029439;28;20421;-61
2023/09/23 00:23:05;;;;;;;1.30;0.50;;;11.80;99.90;;;;;;5032057;28;20519;-61
2023/09/23 00:25:33;;;;;;;1.20;0.50;;;11.90;99.90;;;;;;5023468;28;20417;-61
2023/09/23 00:27:58;;;;;;;1.70;0.57;;;11.60;99.90;;;;;;5027643;28;20944;-61
2023/09/23 00:30:26;;;;;;;1.10;0.40;;;11.60;99.90;;;;;;5022319;28;20417;-61
2023/09/23 00:32:52;;;;;;;1.90;0.83;;;11.70;99.90;;;;;;5024376;28;20167;-61
2023/09/23 00:35:18;;;;;;;1.20;0.50;;;11.40;99.90;;;;;;5025540;28;20428;-61
2023/09/23 00:37:48;;;;;;;1.63;0.73;;;11.30;99.90;;;;;;5031419;28;20436;-61
2023/09/23 00:40:17;;;;;;;2.40;0.63;;;11.20;99.90;;;;;;5030748;28;20429;-61
2023/09/23 00:42:49;;;;;;;1.33;0.50;;;11.20;99.90;;;;;;5031830;28;20413;-61
2023/09/23 00:45:15;;;;;;;11.50;1.03;;;11.10;99.90;;;;;;5023191;28;20421;-61
2023/09/23 00:47:43;;;;;;;1.20;0.50;;;11.20;99.90;;;;;;5031033;28;20409;-61
2023/09/23 00:50:19;;;;;;;1.30;0.50;;;11.10;99.90;;;;;;5025769;28;20515;-61
2023/09/23 00:52:53;;;;;;;1.20;0.50;;;11.10;99.90;;;;;;5031423;28;20417;-61
2023/09/23 00:55:19;;;;;;;1.53;0.60;;;11.10;99.90;;;;;;5023597;28;20448;-61
2023/09/23 00:57:53;;;;;;;1.47;0.60;;;11.00;99.90;;;;;;5031443;28;20429;-61
2023/09/23 01:00:27;;;;;;;1.53;0.70;;;11.00;99.90;;;;;;5019651;28;20437;-61
2023/09/23 01:02:55;;;;;;;1.30;0.60;;;11.00;99.90;;;;;;5031190;28;20417;-61
2023/09/23 01:05:23;;;;;;;1.87;0.67;;;11.00;99.90;;;;;;5022941;28;20429;-61
2023/09/23 01:07:49;;;;;;;1.30;0.50;;;10.90;99.90;;;;;;5030221;28;20418;-61
2023/09/23 01:10:17;;;;;;;1.40;0.80;;;10.80;99.90;;;;;;5024691;28;20432;-62
2023/09/23 01:12:45;;;;;;;1.23;0.57;;;10.70;99.90;;;;;;5030832;28;20183;-61
2023/09/23 01:15:11;;;;;;;1.70;0.80;;;11.60;99.90;;;;;;5024846;28;20511;-61
2023/09/23 01:17:36;;;;;;;1.27;0.60;;;10.60;99.90;;;;;;5030222;28;20497;-61
2023/09/23 01:20:04;;;;;;;1.20;0.60;;;11.70;99.90;;;;;;5024463;28;20336;-61
2023/09/23 01:22:30;;;;;;;1.50;0.63;;;10.60;99.90;;;;;;5030217;28;20175;-61
2023/09/23 01:24:56;;;;;;;1.30;0.70;;;10.50;99.90;;;;;;5028703;28;20436;-61
2023/09/23 01:27:22;;;;;;;1.10;0.50;;;10.50;99.90;;;;;;5029048;28;20182;-61
2023/09/23 01:29:53;;;;;;;2.70;0.60;;;;;;;;;;5023245;28;20452;-61
2023/09/23 01:32:45;;;;;;;1.20;0.60;;;10.50;99.90;;;;;;5030110;28;20432;-61
2023/09/23 01:35:11;;;;;;;1.10;0.40;;;10.50;99.90;;;;;;5020253;28;20877;-61
2023/09/23 01:37:37;;;;;;;1.30;0.70;;;10.40;99.90;;;;;;5028689;28;21078;-61
2023/09/23 01:40:05;;;;;;;1.10;0.50;;;11.40;99.90;;;;;;5022681;28;20464;-61
2023/09/23 01:42:32;;;;;;;1.20;0.50;;;10.20;99.90;;;;;;5027436;28;20532;-61
2023/09/23 01:44:58;;;;;;;1.87;0.90;;;10.90;99.90;;;;;;5022756;28;20421;-61
2023/09/23 01:47:24;;;;;;;1.20;0.60;;;10.80;99.90;;;;;;5029949;28;20409;-61
2023/09/23 01:49:49;;;;;;;1.10;0.50;;;10.30;99.90;;;;;;5022198;28;20764;-61
2023/09/23 01:52:16;;;;;;;1.10;0.40;;;10.10;99.90;;;;;;5027429;28;20221;-61
2023/09/23 01:54:44;;;;;;;2.70;0.63;;;;;;;;;;5022524;28;20183;-61
2023/09/23 01:57:16;;;;;;;1.60;0.50;;;10.10;99.90;;;;;;5030016;28;20524;-61
2023/09/23 01:59:41;;;;;;;2.23;0.80;;;10.30;99.90;;;;;;5022409;28;20472;-61
2023/09/23 02:02:09;;;;;;;1.30;0.60;;;;;;;;;;5029917;28;20425;-61
2023/09/23 02:04:37;;;;;;;1.73;1.00;;;;;;;;;;5021657;28;20183;-61
2023/09/23 02:07:03;;;;;;;1.97;0.70;;;;;;;;;;5030212;28;20417;-61
2023/09/23 02:09:30;;;;;;;1.10;0.50;;;10.30;99.90;;;;;;5023792;28;20476;-61
2023/09/23 02:11:56;;;;;;;1.67;0.60;;;10.20;99.90;;;;;;5030465;28;20425;-61
2023/09/23 02:14:22;;;;;;;1.50;0.80;;;10.10;99.90;;;;;;5024574;28;21118;-61
2023/09/23 02:16:49;;;;;;;1.17;0.57;;;;;;;;;;5029006;28;20429;-61
2023/09/23 02:19:16;;;;;;;2.77;0.80;;;;;;;;;;5025803;28;20686;-61
2023/09/23 02:21:41;;;;;;;1.30;0.50;;;10.10;99.90;;;;;;5029501;28;20417;-61
2023/09/23 02:24:07;;;;;;;1.97;0.67;;;12.90;99.90;;;;;;5029460;28;20445;-61
2023/09/23 02:26:34;;;;;;;1.43;0.60;;;10.10;99.90;;;;;;5029268;28;20631;-61
2023/09/23 02:28:59;;;;;;;1.10;0.50;;;10.10;99.90;;;;;;5021193;28;20255;-61
2023/09/23 02:31:25;;;;;;;1.50;0.80;;;10.10;99.90;;;;;;5023972;28;20906;-61
2023/09/23 02:33:50;;;;;;;1.27;0.53;;;10.00;99.90;;;;;;5024059;28;20182;-61
2023/09/23 02:36:16;;;;;;;1.10;0.40;;;10.00;99.90;;;;;;5025270;28;20691;-61
2023/09/23 02:38:45;;;;;;;1.10;0.50;;;9.90;99.90;;;;;;5027860;28;20203;-61
2023/09/23 02:41:10;;;;;;;1.53;0.60;;;9.90;99.90;;;;;;5024124;28;20187;-61
2023/09/23 02:43:40;;;;;;;1.10;0.40;;;10.00;99.90;;;;;;5028381;28;20840;-61
2023/09/23 02:46:06;;;;;;;1.20;0.50;;;9.80;99.90;;;;;;5023355;28;20643;-61
2023/09/23 02:48:33;;;;;;;1.40;0.60;;;9.80;99.90;;;;;;5028084;28;20428;-61
2023/09/23 02:51:00;;;;;;;1.20;0.50;;;9.80;99.90;;;;;;5022757;28;20421;-61
2023/09/23 02:53:27;;;;;;;1.10;0.50;;;10.40;99.90;;;;;;5031487;28;20913;-61
2023/09/23 02:56:08;;;;;;;1.50;0.70;;;9.80;99.90;;;;;;5025977;28;20421;-61
2023/09/23 02:58:34;;;;;;;1.30;0.70;;;9.80;99.90;;;;;;5032043;28;20514;-61
2023/09/23 03:01:04;;;;;;;1.23;0.60;;;9.80;99.90;;;;;;5030267;28;20841;-61
2023/09/23 03:03:33;;;;;;;1.27;0.50;;;10.30;99.90;;;;;;5031542;28;20421;-61
2023/09/23 03:06:02;;;;;;;2.33;0.80;;;9.80;99.90;;;;;;5026201;28;20425;-61
2023/09/23 03:08:30;;;;;;;1.10;0.40;;;9.80;99.90;;;;;;5031274;28;20441;-61
2023/09/23 03:11:02;;;;;;;1.43;0.60;;;9.80;99.90;;;;;;5025195;28;20424;-61
2023/09/23 03:13:29;;;;;;;1.20;0.60;;;9.80;99.90;;;;;;5032627;28;21008;-61
2023/09/23 03:15:58;;;;;;;1.10;0.50;;;9.80;99.90;;;;;;5029158;28;20529;-61
2023/09/23 03:18:33;;;;;;;1.10;0.40;;;9.80;99.90;;;;;;5031772;28;20465;-61
2023/09/23 03:21:10;;;;;;;1.77;0.80;;;9.80;99.90;;;;;;5027569;28;20445;-61
2023/09/23 03:23:39;;;;;;;1.30;0.50;;;9.90;99.90;;;;;;5033752;28;20499;-61
2023/09/23 03:26:06;;;;;;;2.10;0.93;;;9.80;99.90;;;;;;5029864;28;20412;-61
2023/09/23 03:28:33;;;;;;;1.63;0.53;;;9.70;99.90;;;;;;5023769;28;20433;-61
2023/09/23 03:31:00;;;;;;;1.20;0.50;;;9.70;99.90;;;;;;5027192;28;20421;-61
2023/09/23 03:33:27;;;;;;;1.63;0.67;;;9.90;99.90;;;;;;5025265;28;20426;-61
2023/09/23 03:35:53;;;;;;;2.03;0.60;;;9.70;99.90;;;;;;5029216;28;20420;-61
2023/09/23 03:38:19;;;;;;;1.20;0.60;;;9.70;99.90;;;;;;5032814;28;20990;-61
2023/09/23 03:40:55;;;;;;;1.80;0.83;;;9.70;99.90;;;;;;5030924;28;20417;-61
2023/09/23 03:43:21;;;;;;;1.10;0.50;;;9.70;99.90;;;;;;5032585;28;20185;-61
2023/09/23 03:45:47;;;;;;;1.80;0.57;;;9.70;99.90;;;;;;5024324;28;20417;-61
2023/09/23 03:48:14;;;;;;;7.50;1.00;;;9.70;99.90;;;;;;5032766;28;20190;-61
2023/09/23 03:50:40;;;;;;;1.20;0.60;;;9.70;99.90;;;;;;5024746;28;20498;-61
2023/09/23 03:53:05;;;;;;;5.83;0.67;;;9.70;99.90;;;;;;5032856;28;20902;-61
2023/09/23 03:55:31;;;;;;;7.10;0.80;;;9.70;99.90;;;;;;5024181;28;20269;-61
2023/09/23 03:57:57;;;;;;;1.50;0.80;;;9.50;99.90;;;;;;5032196;28;20183;-61
2023/09/23 04:00:27;;;;;;;1.10;0.40;;;9.50;99.90;;;;;;5024391;28;20429;-61
2023/09/23 04:02:54;;;;;;;1.47;0.70;;;9.50;99.90;;;;;;5032185;28;20420;-61
2023/09/23 04:05:20;;;;;;;1.63;0.73;;;9.50;99.90;;;;;;5022888;28;20451;-61
2023/09/23 04:07:50;;;;;;;4.17;0.70;;;9.50;99.90;;;;;;5028415;28;20421;-61
2023/09/23 04:10:19;;;;;;;3.50;0.90;;;9.50;99.90;;;;;;5025173;28;20455;-61
2023/09/23 04:12:45;;;;;;;1.20;0.70;;;9.50;99.90;;;;;;5032702;28;20459;-61
2023/09/23 04:15:11;;;;;;;1.30;0.50;;;9.60;99.90;;;;;;5027334;28;20424;-61
2023/09/23 04:17:38;;;;;;;1.10;0.43;;;9.60;99.90;;;;;;5032121;28;20413;-61
2023/09/23 04:20:10;;;;;;;1.63;0.67;;;9.50;99.90;;;;;;5028043;28;20492;-62
2023/09/23 04:22:39;;;;;;;1.20;0.50;;;9.50;99.90;;;;;;5032167;28;20424;-61
2023/09/23 04:25:05;;;;;;;1.20;0.60;;;9.40;99.90;;;;;;5031155;28;20421;-62
2023/09/23 04:27:33;;;;;;;1.40;0.70;;;9.30;99.90;;;;;;5030497;28;20804;-62
2023/09/23 04:30:00;;;;;;;1.30;0.60;;;9.30;99.90;;;;;;5025360;28;20433;-62
2023/09/23 04:32:26;;;;;;;1.90;0.70;;;9.30;99.90;;;;;;5030644;28;21276;-62
2023/09/23 04:34:52;;;;;;;3.43;1.10;;;9.40;99.90;;;;;;5026455;28;20421;-62
2023/09/23 04:37:18;;;;;;;2.03;0.90;;;9.40;99.90;;;;;;5031737;28;20447;-62
2023/09/23 04:39:43;;;;;;;1.40;0.70;;;9.40;99.90;;;;;;5028991;28;20206;-62
2023/09/23 04:42:11;;;;;;;8.23;0.77;;;9.30;99.90;;;;;;5032096;28;20508;-62
2023/09/23 04:44:37;;;;;;;1.63;0.70;;;9.40;99.90;;;;;;5024068;28;20631;-62
2023/09/23 04:47:02;;;;;;;2.20;0.70;;;9.40;99.90;;;;;;5031000;28;20460;-62
2023/09/23 04:49:28;;;;;;;1.63;0.80;;;9.40;99.90;;;;;;5023779;28;20262;-62
2023/09/23 04:51:54;;;;;;;1.50;0.60;;;9.40;99.90;;;;;;5031044;28;20281;-62
2023/09/23 04:54:22;;;;;;;1.47;0.70;;;9.40;99.90;;;;;;5024133;28;20187;-62
2023/09/23 04:56:48;;;;;;;1.30;0.60;;;9.40;99.90;;;;;;5031122;28;20468;-62
2023/09/23 04:59:13;;;;;;;1.87;0.93;;;9.30;99.90;;;;;;5025589;28;20462;-62
2023/09/23 05:01:39;;;;;;;1.40;0.60;;;9.30;99.90;;;;;;5021760;28;20195;-62
2023/09/23 05:04:12;;;;;;;1.77;0.60;;;9.30;99.90;;;;;;5026163;28;20179;-62
2023/09/23 05:06:38;;;;;;;1.30;0.60;;;9.20;99.90;;;;;;5027883;28;20187;-62
2023/09/23 05:09:04;;;;;;;1.33;0.70;;;9.20;99.90;;;;;;5025527;28;20444;-62
2023/09/23 05:11:30;;;;;;;3.53;0.60;;;9.30;99.90;;;;;;5029833;28;20192;-61
2023/09/23 05:13:55;;;;;;;2.37;0.90;;;9.20;99.90;;;;;;5021178;28;20781;-62
2023/09/23 05:16:22;;;;;;;1.60;0.67;;;9.20;99.90;;;;;;5028628;28;20190;-61
2023/09/23 05:18:48;;;;;;;1.50;0.80;;;9.20;99.90;;;;;;5027678;28;20510;-61
2023/09/23 05:21:14;;;;;;;1.43;0.70;;;9.30;99.90;;;;;;5029134;28;20462;-61
2023/09/23 05:23:43;;;;;;;1.40;0.70;;;9.30;99.90;;;;;;5028027;28;20462;-61
2023/09/23 05:26:11;;;;;;;1.83;0.93;;;9.30;99.90;;;;;;5025061;28;20827;-61
2023/09/23 05:28:37;;;;;;;1.70;0.90;;;9.30;99.90;;;;;;5024523;28;20421;-61
2023/09/23 05:31:03;;;;;;;2.60;0.70;;;9.40;99.90;;;;;;5024658;28;20429;-61
2023/09/23 05:33:29;;;;;;;1.20;0.63;;;9.40;99.90;;;;;;5029125;28;20584;-61
2023/09/23 05:35:55;;;;;;;1.73;0.70;;;9.30;99.90;;;;;;5025424;28;20524;-61
2023/09/23 05:38:20;;;;;;;1.40;0.70;;;9.50;99.90;;;;;;5029582;28;20229;-61
2023/09/23 05:40:46;;;;;;;1.10;0.50;;;9.50;99.90;;;;;;5023750;28;20202;-62
2023/09/23 05:43:12;;;;;;;1.57;0.70;;;9.50;99.90;;;;;;5030999;28;20232;-62
2023/09/23 05:45:37;;;;;;;1.60;0.90;;;9.60;99.90;;;;;;5020694;28;20185;-62
2023/09/23 05:48:04;;;;;;;1.47;0.80;;;9.70;99.90;;;;;;5021321;28;20467;-62
2023/09/23 05:50:30;;;;;;;1.13;0.50;;;9.60;99.90;;;;;;5027083;28;20179;-62
2023/09/23 05:52:57;;;;;;;3.83;0.70;;;9.60;99.90;;;;;;5024003;28;20474;-62
2023/09/23 05:55:23;;;;;;;2.27;0.90;;;9.60;99.90;;;;;;5024188;28;20495;-62
2023/09/23 05:57:51;;;;;;;2.07;0.83;;;9.70;99.90;;;;;;5030425;28;20421;-62
2023/09/23 06:00:17;;;;;;;2.23;1.17;;;9.80;99.90;;;;;;5022201;28;21236;-62
2023/09/23 06:02:47;;;;;;;1.67;0.73;;;9.90;99.90;;;;;;5030418;28;20427;-62
2023/09/23 06:05:14;;;;;;;1.27;0.60;;;9.90;99.90;;;;;;5023217;28;20182;-62
2023/09/23 06:07:41;;;;;;;1.60;0.70;;;10.00;99.90;;;;;;5029058;28;20902;-62
2023/09/23 06:10:08;;;;;;;1.40;0.67;;;10.10;99.90;;;;;;5023594;28;20417;-62
2023/09/23 06:12:35;;;;;;;1.73;0.70;;;10.10;99.90;;;;;;5030207;28;20432;-61
2023/09/23 06:15:02;;;;;;;1.70;0.70;;;10.20;99.90;;;;;;5023821;28;20828;-62
2023/09/23 06:17:28;;;;;;;2.63;0.63;;;10.30;99.90;;;;;;5030202;28;20504;-62
2023/09/23 06:19:56;;;;;;;1.57;0.60;;;10.30;99.90;;;;;;5031274;28;20555;-62
2023/09/23 06:22:23;;;;;;;1.57;0.80;;;10.40;99.90;;;;;;5029920;28;20409;-62
2023/09/23 06:24:51;;;;;;;1.60;0.60;;;10.40;99.90;;;;;;5027406;28;20516;-62
2023/09/23 06:27:17;;;;;;;1.30;0.60;;;10.40;99.90;;;;;;5031317;28;20432;-62
2023/09/23 06:29:44;;;;;;;1.30;0.60;;;10.50;99.90;;;;;;5025143;28;20433;-62
2023/09/23 06:32:09;;;;;;;1.57;0.77;;;10.50;99.90;;;;;;5026420;28;20443;-62
2023/09/23 06:34:35;;;;;;;1.60;0.70;;;10.50;99.90;;;;;;5025863;28;20422;-62
2023/09/23 06:37:01;;;;;;;1.97;0.57;;;10.50;99.90;;;;;;5033747;28;20198;-62
2023/09/23 06:39:27;;;;;;;1.27;0.67;;;10.70;99.90;;;;;;5026362;28;21161;-62
2023/09/23 06:41:53;;;;;;;1.43;0.70;;;10.70;99.90;;;;;;5033394;28;20709;-62
2023/09/23 06:44:18;;;;;;;3.73;1.10;;;10.80;99.90;;;;;;5024904;28;20179;-62
2023/09/23 06:46:44;;;;;;;2.90;0.73;;;10.70;99.90;;;;;;5028539;28;20171;-62
2023/09/23 06:49:09;;;;;;;1.77;0.60;;;11.00;99.90;;;;;;5025325;28;20277;-62
2023/09/23 06:51:35;;;;;;;3.73;0.50;;;10.90;99.90;;;;;;5025751;28;20178;-62
2023/09/23 06:54:01;;;;;;;3.60;0.80;;;11.00;99.90;;;;;;5022927;28;20209;-62
2023/09/23 06:56:26;;;;;;;1.70;0.70;;;11.00;99.90;;;;;;5027884;28;20186;-61
2023/09/23 06:58:52;;;;;;;2.20;0.80;;;11.10;99.90;;;;;;5027461;28;20198;-61
2023/09/23 07:01:18;;;;;;;2.27;0.90;;;11.10;99.90;;;;;;5027252;28;20179;-62
2023/09/23 07:03:44;;;;;;;2.00;0.77;;;11.20;99.90;;;;;;5029810;28;20546;-62
2023/09/23 07:06:09;;;;;;;1.27;0.57;;;11.40;99.90;;;;;;5025487;28;20424;-62
2023/09/23 07:08:35;;;;;;;2.40;1.10;;;11.40;99.90;;;;;;5030686;28;20182;-61
2023/09/23 07:11:01;;;;;;;1.10;0.50;;;11.40;99.90;;;;;;5028694;28;20198;-62
2023/09/23 07:13:26;;;;;;;1.10;0.50;;;11.50;99.90;;;;;;5033163;28;21003;-61
2023/09/23 07:15:52;;;;;;;1.57;0.60;;;11.80;99.90;;;;;;5026275;28;20189;-62
2023/09/23 07:18:17;;;;;;;1.30;0.60;;;12.00;99.90;;;;;;5033305;28;20197;-62
2023/09/23 07:20:43;;;;;;;1.20;0.50;;;12.00;99.90;;;;;;5027004;28;20182;-62
2023/09/23 07:23:09;;;;;;;2.07;0.60;;;12.00;99.90;;;;;;5034060;28;20181;-61
2023/09/23 07:25:39;;;;;;;5.80;1.23;;;12.10;99.90;;;;;;5028906;28;20714;-62
2023/09/23 07:28:08;;;;;;;1.20;0.50;;;12.30;99.90;;;;;;5033777;28;20216;-61
2023/09/23 07:30:34;;;;;;;1.20;0.50;;;12.60;99.90;;;;;;5025425;28;20920;-61
2023/09/23 07:33:00;;;;;;;1.80;0.87;;;12.80;99.90;;;;;;5033730;28;20424;-61
2023/09/23 07:35:33;;;;;;;1.87;0.73;;;12.90;99.90;;;;;;5025936;28;20512;-62
2023/09/23 07:37:59;;;;;;;2.03;0.80;;;13.50;99.90;;;;;;5024929;28;20198;-62
2023/09/23 07:40:27;;;;;;;1.77;0.87;;;13.90;99.90;;;;;;5024615;28;20476;-61
2023/09/23 07:42:52;;;;;;;4.23;1.30;;;14.40;99.90;;;;;;5032319;28;20808;-62
2023/09/23 07:45:18;;;;;;;1.97;0.93;;;14.70;99.90;;;;;;5024311;28;20461;-61
2023/09/23 07:47:43;;;;;;;2.03;0.90;;;14.70;99.90;;;;;;5032388;28;20210;-61
2023/09/23 07:50:09;;;;;;;2.87;1.43;;;15.10;99.90;;;;;;5026827;28;20224;-62
2023/09/23 07:52:35;;;;;;;1.80;0.70;;;15.30;99.90;;;;;;5032129;28;20186;-61
2023/09/23 07:55:02;;;;;;;4.83;1.40;;;15.20;99.90;;;;;;5023272;28;20660;-61
2023/09/23 07:57:27;;;;;;;1.60;0.80;;;15.20;99.90;;;;;;5031733;28;20418;-62
2023/09/23 07:59:53;;;;;;;2.80;1.20;;;15.10;99.90;;;;;;5024122;28;20464;-62
2023/09/23 08:02:18;;;;;;;4.43;1.27;;;15.00;99.90;;;;;;5032068;28;20183;-62
2023/09/23 08:04:44;;;;;;;1.93;0.90;;;15.00;99.90;;;;;;5023345;28;20261;-62
2023/09/23 08:07:11;;;;;;;2.00;1.13;;;14.90;99.90;;;;;;5031248;28;20197;-62
2023/09/23 08:09:37;;;;;;;2.67;1.30;;;15.40;99.90;;;;;;5023990;28;20633;-61
2023/09/23 08:12:03;;;;;;;1.40;0.70;;;15.80;99.90;;;;;;5031376;28;20429;-62
2023/09/23 08:14:28;;;;;;;4.43;1.10;;;15.90;99.90;;;;;;5021189;28;20495;-61
2023/09/23 08:16:54;;;;;;;2.27;1.33;;;16.20;99.90;;;;;;5021493;28;20193;-62
2023/09/23 08:19:20;;;;;;;1.47;0.73;;;16.00;99.90;;;;;;5023231;28;20298;-62
2023/09/23 08:21:45;;;;;;;1.20;0.50;;;16.10;99.90;;;;;;5027370;28;20186;-62
2023/09/23 08:24:11;;;;;;;1.20;0.50;;;16.10;99.90;;;;;;5029952;28;20245;-62
2023/09/23 08:26:37;;;;;;;1.30;0.50;;;16.30;99.90;;;;;;5029446;28;20182;-61
2023/09/23 08:29:03;;;;;;;1.40;0.50;;;16.20;99.90;;;;;;5029039;28;20491;-62
2023/09/23 08:31:28;;;;;;;1.60;0.67;;;16.60;99.90;;;;;;5028981;28;20524;-61
2023/09/23 08:33:54;;;;;;;1.30;0.50;;;16.40;99.90;;;;;;5029541;28;20186;-62
2023/09/23 08:36:20;;;;;;;1.70;0.70;;;16.60;99.90;;;;;;5023641;28;20257;-63
2023/09/23 08:38:45;;;;;;;1.20;0.40;;;16.50;99.90;;;;;;5023760;28;20206;-62
2023/09/23 08:41:13;;;;;;;1.40;0.53;;;16.60;99.50;;;;;;5027552;28;21426;-61
2023/09/23 08:43:42;;;;;;;1.93;0.60;;;16.60;99.00;;;;;;5022164;28;20190;-63
2023/09/23 08:46:09;;;;;;;1.20;0.50;;;16.60;99.90;;;;;;5025889;28;21091;-62
2023/09/23 08:48:38;;;;;;;1.73;0.77;;;16.80;99.50;;;;;;5025934;28;20494;-63
2023/09/23 08:51:06;;;;;;;1.40;0.77;;;17.00;98.90;;;;;;5024699;28;20425;-63
2023/09/23 08:53:39;;;;;;;1.70;0.70;;;16.80;99.00;;;;;;5030373;28;20421;-63
2023/09/23 08:56:06;;;;;;;3.50;1.00;;;16.60;99.30;;;;;;5027419;28;20424;-62
2023/09/23 08:58:32;;;;;;;1.20;0.50;;;16.50;99.60;;;;;;5029943;28;20453;-63
2023/09/23 09:00:58;;;;;;;1.90;0.60;;;16.70;99.20;;;;;;5022941;28;20951;-62
2023/09/23 09:03:24;;;;;;;2.43;0.80;;;17.10;98.40;;;;;;5028024;28;20167;-63
2023/09/23 09:05:50;;;;;;;5.57;0.70;;;17.20;98.70;;;;;;5023006;28;20221;-63
2023/09/23 09:08:18;;;;;;;1.20;0.50;;;17.40;98.70;;;;;;5030606;28;20197;-63
2023/09/23 09:10:44;;;;;;;1.30;0.50;;;17.40;99.00;;;;;;5015351;28;20237;-63
2023/09/23 09:13:10;;;;;;;2.00;0.90;;;17.30;98.80;;;;;;5031414;28;20511;-63
2023/09/23 09:15:38;;;;;;;6.60;1.00;;;17.60;98.40;;;;;;5022742;28;20535;-63
2023/09/23 09:18:04;;;;;;;1.50;0.63;;;18.10;97.60;;;;;;5030788;28;20289;-63
2023/09/23 09:20:31;;;;;;;5.00;0.80;;;18.40;97.00;;;;;;5023124;28;20521;-63
2023/09/23 09:22:57;;;;;;;1.77;0.60;;;18.40;97.30;;;;;;5031180;28;20416;-63
2023/09/23 09:25:23;;;;;;;1.60;0.60;;;18.60;96.00;;;;;;5028150;28;20554;-63
2023/09/23 09:27:51;;;;;;;1.80;0.60;;;18.50;96.70;;;;;;5030079;28;20508;-63
2023/09/23 09:30:19;;;;;;;2.80;0.50;;;18.60;95.90;;;;;;5026763;28;20189;-63
2023/09/23 09:32:45;;;;;;;2.50;0.90;;;18.40;94.30;;;;;;5029879;28;20496;-63
2023/09/23 09:35:17;;;;;;;1.70;0.63;;;18.00;94.50;;;;;;5022774;28;20425;-63
2023/09/23 09:37:46;;;;;;;2.30;0.70;;;17.50;95.50;;;;;;5030087;28;20944;-62
2023/09/23 09:40:17;;;;;;;2.17;0.83;;;17.20;95.30;;;;;;5023162;28;20467;-63
2023/09/23 09:42:51;;;;;;;2.17;0.93;;;16.90;96.20;;;;;;5029780;28;20436;-62
2023/09/23 09:45:19;;;;;;;2.90;0.60;;;16.90;97.10;;;;;;5022632;28;21011;-63
2023/09/23 09:47:45;;;;;;;2.13;0.70;;;16.60;97.00;;;;;;5029506;28;20417;-63
2023/09/23 09:50:14;;;;;;;1.53;0.70;;;16.70;96.60;;;;;;5021033;28;20921;-62
2023/09/23 09:52:43;;;;;;;2.23;0.70;;;16.60;97.00;;;;;;5029773;28;20371;-62
2023/09/23 09:55:18;;;;;;;1.70;0.73;;;16.70;97.10;;;;;;5022766;28;20436;-62
2023/09/23 09:57:45;;;;;;;1.83;0.80;;;16.60;97.20;;;;;;5028171;28;20516;-61
2023/09/23 10:00:26;;;;;;;1.70;0.63;;;16.30;97.00;;;;;;5022434;28;20464;-61
2023/09/23 10:03:08;;;;;;;2.17;0.90;;;16.50;98.20;;;;;;5029655;28;20416;-61
2023/09/23 10:05:47;;;;;;;1.87;0.70;;;16.60;97.60;;;;;;5028056;28;20486;-64
2023/09/23 10:08:15;;;;;;;1.40;0.70;;;16.90;97.10;;;;;;5030055;28;20480;-63
2023/09/23 10:10:48;;;;;;;6.43;2.10;;;16.70;96.60;;;;;;5021928;28;20451;-63
2023/09/23 10:13:17;;;;;;;22.67;6.90;;;16.60;97.10;;;;;;5030858;28;20412;-63
2023/09/23 10:15:43;;;;;;;11.73;3.23;;;16.60;97.40;;;;;;5022325;28;20421;-63
2023/09/23 10:18:13;;;;;;;3.93;1.33;;;16.90;96.30;;;;;;5023862;28;20421;-63
2023/09/23 10:20:54;;;;;;;2.13;0.83;;;17.00;97.50;;;;;;5022247;28;20192;-63
2023/09/23 10:23:20;;;;;;;1.30;0.60;;;17.10;95.60;;;;;;5032593;28;20460;-63
2023/09/23 10:25:50;;;;;;;2.40;1.10;;;17.10;95.80;;;;;;5024438;28;20406;-63
2023/09/23 10:28:21;;;;;;;1.67;0.70;;;16.90;96.00;;;;;;5028909;28;20504;-63
2023/09/23 10:31:06;;;;;;;1.60;0.70;;;16.70;95.60;;;;;;5019458;28;20434;-63
2023/09/23 10:33:36;;;;;;;6.63;0.70;;;16.70;97.70;;;;;;5028788;28;20462;-63
2023/09/23 10:36:03;;;;;;;1.83;0.70;;;16.70;95.90;;;;;;5025414;28;20429;-63
2023/09/23 10:38:34;;;;;;;3.73;0.80;;;16.90;95.70;;;;;;5028977;28;20432;-63
2023/09/23 10:41:01;;;;;;;7.83;1.33;;;16.90;94.90;;;;;;5022910;28;20941;-63
2023/09/23 10:43:27;;;;;;;1.90;0.67;;;16.90;95.30;;;;;;5023956;28;20477;-64
2023/09/23 10:45:58;;;;;;;2.87;0.63;;;16.80;96.30;;;;;;5021513;28;20425;-63
2023/09/23 10:48:25;;;;;;;1.40;0.60;;;17.10;95.40;;;;;;5028494;28;20535;-64
2023/09/23 10:50:51;;;;;;;4.20;0.70;;;17.30;94.60;;;;;;5019548;28;20460;-64
2023/09/23 10:53:27;;;;;;;3.07;0.83;;;17.20;94.80;;;;;;5030096;28;20416;-64
2023/09/23 10:55:53;;;;;;;1.30;0.60;;;17.40;94.20;;;;;;5021739;28;20551;-64
2023/09/23 10:58:19;;;;;;;1.30;0.60;;;17.50;94.70;;;;;;5029505;28;20436;-63
2023/09/23 11:00:46;;;;;;;1.97;0.80;;;17.40;93.20;;;;;;5016950;28;20429;-64
2023/09/23 11:03:16;;;;;;;2.43;0.77;;;17.20;94.10;;;;;;5029999;28;20170;-64
2023/09/23 11:05:43;;;;;;;1.83;0.70;;;17.20;93.80;;;;;;5018686;28;20520;-64
2023/09/23 11:08:10;;;;;;;1.30;0.60;;;16.90;95.60;;;;;;5029879;28;20418;-64
2023/09/23 11:10:40;;;;;;;2.53;0.77;;;16.80;94.90;;;;;;5021224;28;20421;-64
2023/09/23 11:13:10;;;;;;;3.53;0.97;;;16.70;95.60;;;;;;5030039;28;20906;-63
2023/09/23 11:15:37;;;;;;;3.67;0.87;;;16.80;94.70;;;;;;5023895;28;20436;-63
2023/09/23 11:18:06;;;;;;;2.30;1.00;;;16.80;94.80;;;;;;5033288;28;20874;-63
2023/09/23 11:20:32;;;;;;;1.90;0.60;;;16.70;94.50;;;;;;5025844;28;20468;-63
2023/09/23 11:23:02;;;;;;;1.50;0.70;;;16.70;94.50;;;;;;5033562;28;20896;-63
2023/09/23 11:25:27;;;;;;;2.20;1.00;;;16.80;95.50;;;;;;5030298;28;20427;-63
2023/09/23 11:27:58;;;;;;;2.23;0.60;;;17.00;93.90;;;;;;5032477;28;20417;-63
2023/09/23 11:30:24;;;;;;;11.00;0.77;;;17.20;93.60;;;;;;5033409;28;20257;-63
2023/09/23 11:32:51;;;;;;;1.33;0.60;;;17.70;93.80;;;;;;5032287;28;20934;-63
2023/09/23 11:35:17;;;;;;;1.40;0.50;;;18.00;92.30;;;;;;5025462;28;20240;-63
2023/09/23 11:37:44;;;;;;;1.60;0.70;;;18.00;92.80;;;;;;5034666;28;20782;-63
2023/09/23 11:40:12;;;;;;;2.43;0.83;;;18.50;92.50;;;;;;5024036;28;20544;-63
2023/09/23 11:42:38;;;;;;;3.77;0.60;;;19.00;92.20;;;;;;5037004;28;20936;-60
2023/09/23 11:45:04;;;;;;;1.50;0.70;;;19.10;90.30;;;;;;5022746;28;20417;-60
2023/09/23 11:47:30;;;;;;;1.60;0.70;;;19.70;89.10;;;;;;5031524;28;20205;-61
2023/09/23 11:49:55;;;;;;;4.30;0.60;;;19.60;89.50;;;;;;5022496;28;20506;-60
2023/09/23 11:52:22;;;;;;;1.30;0.60;;;19.10;91.50;;;;;;5031583;28;20420;-61
2023/09/23 11:54:47;;;;;;;1.90;0.90;;;18.70;91.00;;;;;;5024522;28;20702;-61
2023/09/23 11:57:13;;;;;;;3.10;0.90;;;18.40;92.70;;;;;;5031645;28;20512;-61
2023/09/23 11:59:40;;;;;;;6.27;1.23;;;18.10;92.30;;;;;;5018235;28;20195;-61
2023/09/23 12:02:06;;;;;;;1.50;0.60;;;17.80;93.00;;;;;;5025317;28;20418;-61
2023/09/23 12:04:32;;;;;;;1.40;0.50;;;17.60;93.60;;;;;;5019630;28;20434;-61
2023/09/23 12:06:58;;;;;;;2.63;0.60;;;17.50;94.10;;;;;;5030185;28;20405;-61
2023/09/23 12:09:24;;;;;;;2.23;0.50;;;17.30;93.50;;;;;;5033229;28;20183;-61
2023/09/23 12:11:52;;;;;;;2.37;0.80;;;17.20;93.20;;;;;;5029103;28;20187;-61
2023/09/23 12:14:19;;;;;;;1.40;0.70;;;17.30;94.10;;;;;;5026792;28;20457;-61
2023/09/23 12:16:45;;;;;;;3.87;0.93;;;17.50;92.10;;;;;;5034859;28;20511;-61
2023/09/23 12:19:11;;;;;;;1.50;0.60;;;17.80;92.30;;;;;;5027667;28;20453;-61
2023/09/23 12:21:37;;;;;;;1.90;0.70;;;17.90;92.20;;;;;;5029719;28;20413;-61
2023/09/23 12:24:03;;;;;;;1.27;0.50;;;17.90;89.80;;;;;;5031251;28;20660;-60
2023/09/23 12:26:31;;;;;;;2.20;0.97;;;18.00;90.50;;;;;;5028544;28;20178;-61
2023/09/23 12:28:56;;;;;;;1.53;0.70;;;17.80;90.70;;;;;;5029745;28;20428;-61
2023/09/23 12:31:23;;;;;;;1.20;0.50;;;17.70;90.50;;;;;;5029784;28;20409;-61
2023/09/23 12:33:50;;;;;;;1.80;0.97;;;17.40;90.90;;;;;;5029365;28;20183;-61
2023/09/23 12:36:16;;;;;;;1.50;0.70;;;17.40;92.30;;;;;;5023251;28;20452;-61
2023/09/23 12:38:42;;;;;;;3.93;0.87;;;17.40;92.30;;;;;;5029555;28;20498;-61
2023/09/23 12:41:08;;;;;;;2.50;0.80;;;17.50;91.00;;;;;;5024731;28;20269;-61
2023/09/23 12:43:33;;;;;;;1.63;0.60;;;17.90;91.50;;;;;;5030128;28;20216;-61
2023/09/23 12:45:59;;;;;;;2.00;0.80;;;18.30;90.40;;;;;;5022809;28;20212;-61
2023/09/23 12:48:25;;;;;;;1.73;0.63;;;18.40;90.20;;;;;;5030785;28;20521;-61
2023/09/23 12:50:51;;;;;;;1.73;0.70;;;18.10;91.10;;;;;;5022325;28;20183;-61